createdAt,value
2018-11-02T15:53:12.009Z,0
2018-11-02T15:54:11.893Z,0
2018-11-02T15:55:13.425Z,0
2018-11-02T15:56:13.389Z,0
2018-11-02T15:57:13.529Z,0
2018-11-02T15:58:11.777Z,0
2018-11-02T15:59:12.836Z,0
2018-11-02T16:00:12.587Z,0
2018-11-02T16:01:12.745Z,0
2018-11-02T16:02:11.785Z,0
2018-11-02T16:03:13.411Z,0
2018-11-02T16:04:11.822Z,0
2018-11-02T16:05:12.572Z,0
2018-11-02T16:06:11.825Z,0
2018-11-02T16:07:11.801Z,0
2018-11-02T16:08:12.331Z,0
2018-11-02T16:09:11.853Z,0
2018-11-02T16:10:12.357Z,0
2018-11-02T16:11:15.997Z,0
2018-11-02T16:12:12.572Z,0
2018-11-02T16:13:13.054Z,0
2018-11-02T16:14:12.238Z,0
2018-11-02T16:15:12.718Z,0
2018-11-02T16:16:14.278Z,0
2018-11-02T16:17:13.416Z,0
2018-11-02T16:18:12.939Z,0
2018-11-02T16:19:12.467Z,0
2018-11-02T16:20:12.162Z,0
2018-11-02T16:21:11.830Z,0
2018-11-02T16:22:15.529Z,0
2018-11-02T16:23:12.481Z,0
2018-11-02T16:24:12.436Z,0
2018-11-02T16:25:13.407Z,0
2018-11-02T16:26:12.703Z,0
2018-11-02T16:27:12.334Z,0
2018-11-02T16:28:11.730Z,0
2018-11-02T16:29:11.773Z,0
2018-11-02T16:30:12.185Z,0
2018-11-02T16:31:12.364Z,0
2018-11-02T16:32:11.868Z,0
2018-11-02T16:33:13.895Z,0
2018-11-02T16:34:12.574Z,0
2018-11-02T16:35:13.488Z,0
2018-11-02T16:36:12.458Z,0
2018-11-02T16:37:12.744Z,0
2018-11-02T16:38:11.787Z,0
2018-11-02T16:39:13.794Z,0
2018-11-02T16:40:12.744Z,0
2018-11-02T17:15:46.919Z,0
2018-11-02T17:16:48.402Z,0
2018-11-02T17:17:48.130Z,0
2018-11-02T17:18:46.917Z,0
2018-11-02T17:19:47.619Z,0
2018-11-02T17:22:06.492Z,0
2018-11-02T17:23:16.772Z,0
2018-11-02T17:24:09.756Z,0
2018-11-02T17:26:05.685Z,0
2018-11-02T17:28:56.716Z,0
2018-11-02T17:29:55.450Z,0
2018-11-02T17:31:55.889Z,0
2018-11-02T17:32:58.818Z,0
2018-11-02T17:33:57.218Z,0
2018-11-02T17:34:56.038Z,0
2018-11-02T17:35:57.524Z,0
2018-11-02T17:36:55.984Z,0
2018-11-02T17:37:55.456Z,0
2018-11-02T17:38:57.203Z,0
2018-11-02T17:39:55.372Z,0
2018-11-02T17:43:23.938Z,0
2018-11-02T17:46:50.285Z,0
2018-11-02T17:47:49.434Z,0
2018-11-02T17:48:47.663Z,0
2018-11-02T17:49:51.300Z,0
2018-11-02T17:50:49.708Z,0
2018-11-02T17:51:47.714Z,0
2018-11-02T17:52:51.650Z,0
2018-11-02T17:55:42.942Z,0
2018-11-02T17:56:44.032Z,0
2018-11-02T17:57:44.708Z,0
2018-11-02T17:59:48.686Z,0
2018-11-02T18:00:45.650Z,0
2018-11-02T18:01:43.211Z,0
2018-11-02T18:02:45.499Z,0
2018-11-02T18:03:43.110Z,0
2018-11-02T18:04:43.553Z,0
2018-11-02T18:06:09.883Z,0
2018-11-02T18:06:42.866Z,0
2018-11-02T18:07:43.973Z,0
2018-11-02T18:08:43.288Z,0
2018-11-02T18:09:45.597Z,0
2018-11-02T18:10:43.644Z,0
2018-11-02T18:11:45.669Z,0
2018-11-02T18:12:44.141Z,0
2018-11-02T18:13:43.931Z,0
2018-11-02T18:14:43.117Z,0
2018-11-02T18:15:45.004Z,0
2018-11-02T18:16:46.906Z,0
2018-11-02T18:17:42.187Z,0
2018-11-02T18:18:43.277Z,0
2018-11-02T18:19:42.625Z,0
2018-11-02T18:20:46.951Z,0
2018-11-02T18:21:46.031Z,0
2018-11-02T18:22:46.675Z,0
2018-11-02T18:23:44.268Z,0
2018-11-02T18:24:49.396Z,0
2018-11-02T18:25:47.019Z,0
2018-11-02T18:26:44.903Z,0
2018-11-02T18:27:44.911Z,0
2018-11-02T18:28:47.090Z,0
2018-11-02T18:29:45.713Z,0
2018-11-02T18:30:46.234Z,0
2018-11-02T18:31:44.067Z,0
2018-11-02T18:32:56.241Z,0
2018-11-02T18:33:47.733Z,0
2018-11-02T18:34:44.613Z,0
2018-11-02T18:35:49.215Z,0
2018-11-02T18:36:46.275Z,0
2018-11-02T18:37:45.772Z,0
2018-11-02T18:38:46.370Z,0
2018-11-02T18:40:02.494Z,0
2018-11-02T18:40:46.294Z,0
2018-11-02T18:41:47.807Z,0
2018-11-02T18:42:42.125Z,0
2018-11-02T18:43:48.152Z,0
2018-11-02T18:44:45.154Z,0
2018-11-02T18:45:45.349Z,0
2018-11-02T18:46:47.220Z,0
2018-11-02T18:48:43.965Z,0
2018-11-02T18:49:42.696Z,0
2018-11-02T18:50:46.622Z,0
2018-11-02T18:51:48.083Z,0
2018-11-02T18:52:42.571Z,0
2018-11-02T18:53:44.047Z,0
2018-11-02T18:54:47.199Z,0
2018-11-02T19:37:31.157Z,0
2018-11-02T19:38:58.107Z,1.8
2018-11-02T19:39:32.308Z,6.6
2018-11-02T19:40:32.491Z,1.8
2018-11-02T19:41:30.685Z,9.5
2018-11-02T19:42:33.168Z,3.9
2018-11-02T19:43:35.614Z,9.5
2018-11-02T19:44:30.663Z,6.6
2018-11-02T19:45:32.146Z,9.5
2018-11-02T19:46:31.743Z,15.4
2018-11-02T19:47:33.023Z,21.3
2018-11-02T19:48:29.828Z,18.3
2018-11-02T19:49:33.377Z,15.4
2018-11-02T19:50:31.254Z,15.4
2018-11-02T19:51:31.433Z,12.4
2018-11-02T19:52:32.158Z,9.5
2018-11-02T19:53:32.918Z,9.5
2018-11-02T19:54:31.374Z,9.5
2018-11-02T19:55:29.225Z,6.6
2018-11-02T19:56:35.576Z,6.6
2018-11-02T19:57:30.953Z,3.9
2018-11-02T19:58:31.157Z,9.5
2018-11-02T19:59:32.868Z,12.4
2018-11-02T20:00:31.682Z,9.5
2018-11-02T20:01:32.305Z,9.5
2018-11-02T20:02:33.090Z,9.5
2018-11-02T20:03:30.400Z,6.6
2018-11-02T20:04:30.599Z,9.5
2018-11-02T20:05:35.807Z,9.5
2018-11-02T20:06:31.205Z,9.5
2018-11-02T20:07:30.068Z,9.5
2018-11-02T20:08:30.566Z,9.5
2018-11-02T20:09:30.060Z,9.5
2018-11-02T20:10:30.205Z,6.6
2018-11-02T20:11:36.437Z,3.9
2018-11-02T20:12:36.009Z,3.9
2018-11-02T20:13:53.132Z,6.6
2018-11-02T20:15:37.080Z,6.6
2018-11-02T20:16:36.260Z,6.6
2018-11-02T20:17:35.070Z,3.9
2018-11-02T20:18:34.111Z,9.5
2018-11-02T20:19:35.273Z,6.6
2018-11-02T20:20:34.602Z,6.6
2018-11-02T20:21:34.969Z,15.4
2018-11-02T20:22:35.161Z,12.4
2018-11-02T20:23:32.915Z,9.5
2018-11-02T20:24:32.407Z,3.9
2018-11-02T20:25:33.244Z,15.4
2018-11-02T20:26:32.718Z,6.6
2018-11-02T20:27:39.217Z,9.5
2018-11-02T20:28:33.787Z,6.6
2018-11-02T20:29:31.636Z,6.6
2018-11-02T20:30:32.564Z,12.4
2018-11-02T20:31:34.809Z,9.5
2018-11-02T20:32:36.251Z,12.4
2018-11-02T20:33:33.453Z,12.4
2018-11-02T20:34:34.335Z,12.4
2018-11-02T20:35:31.812Z,12.4
2018-11-02T20:36:32.832Z,15.4
2018-11-02T20:37:32.255Z,18.3
2018-11-02T20:38:36.387Z,12.4
2018-11-02T20:39:36.406Z,15.4
2018-11-02T20:40:39.932Z,15.4
2018-11-02T20:41:35.299Z,18.3
2018-11-02T20:42:34.558Z,24.3
2018-11-02T20:43:34.386Z,18.3
2018-11-02T20:45:34.842Z,24.3
2018-11-02T20:46:33.484Z,15.4
2018-11-02T20:47:37.903Z,21.3
2018-11-02T20:48:36.467Z,21.3
2018-11-02T20:49:33.674Z,18.3
2018-11-02T20:50:36.227Z,27.3
2018-11-02T20:51:33.324Z,27.3
2018-11-02T20:52:36.886Z,30.3
2018-11-02T20:53:32.374Z,27.3
2018-11-02T20:54:38.578Z,27.3
2018-11-02T20:55:36.312Z,18.3
2018-11-02T20:56:39.475Z,27.3
2018-11-02T20:57:37.285Z,21.3
2018-11-02T20:58:35.770Z,21.3
2018-11-02T21:00:38.681Z,21.3
2018-11-02T21:01:41.463Z,18.3
2018-11-02T21:02:38.434Z,24.3
2018-11-02T21:03:40.430Z,18.3
2018-11-02T21:04:38.456Z,18.3
2018-11-02T21:05:48.655Z,24.3
2018-11-02T21:06:42.384Z,15.4
2018-11-02T21:07:43.732Z,21.3
2018-11-02T21:08:38.540Z,24.3
2018-11-02T21:09:38.996Z,18.3
2018-11-02T21:10:39.553Z,15.4
2018-11-02T21:11:38.547Z,18.3
2018-11-02T21:12:38.358Z,18.3
2018-11-02T21:13:41.130Z,15.4
2018-11-02T21:14:41.118Z,24.3
2018-11-02T21:15:38.361Z,18.3
2018-11-02T21:16:39.366Z,18.3
2018-11-02T21:17:38.419Z,21.3
2018-11-02T21:18:37.824Z,18.3
2018-11-02T21:19:38.758Z,18.3
2018-11-02T21:20:40.779Z,18.3
2018-11-02T21:21:41.056Z,15.4
2018-11-02T21:22:40.004Z,15.4
2018-11-02T21:23:38.444Z,12.4
2018-11-02T21:24:38.014Z,15.4
2018-11-02T21:25:38.753Z,21.3
2018-11-02T21:26:40.336Z,15.4
2018-11-02T21:27:39.411Z,18.3
2018-11-02T21:28:37.892Z,12.4
2018-11-02T21:29:38.681Z,12.4
2018-11-02T21:30:38.232Z,15.4
2018-11-02T21:31:40.002Z,15.4
2018-11-02T21:32:40.168Z,15.4
2018-11-02T21:33:37.834Z,15.4
2018-11-02T21:34:41.985Z,9.5
2018-11-02T21:35:40.938Z,9.5
2018-11-02T21:36:39.902Z,9.5
2018-11-02T21:37:37.758Z,15.4
2018-11-02T21:38:38.541Z,12.4
2018-11-02T21:39:37.737Z,15.4
2018-11-02T21:40:38.502Z,12.4
2018-11-02T21:41:37.852Z,15.4
2018-11-02T21:42:38.404Z,12.4
2018-11-02T21:43:39.679Z,18.3
2018-11-02T21:44:38.332Z,15.4
2018-11-02T21:45:40.163Z,15.4
2018-11-02T21:46:38.539Z,18.3
2018-11-02T21:47:39.367Z,12.4
2018-11-02T21:48:38.918Z,15.4
2018-11-02T21:49:38.608Z,15.4
2018-11-02T21:50:39.388Z,15.4
2018-11-02T21:51:38.834Z,21.3
2018-11-02T21:52:40.829Z,15.4
2018-11-02T21:53:38.426Z,15.4
2018-11-02T21:54:38.428Z,15.4
2018-11-02T21:55:38.360Z,15.4
2018-11-02T21:56:38.939Z,15.4
2018-11-02T21:57:39.191Z,18.3
2018-11-02T21:58:40.048Z,18.3
2018-11-02T21:59:39.277Z,21.3
2018-11-02T22:00:39.472Z,15.4
2018-11-02T22:01:37.859Z,15.4
2018-11-02T22:02:39.411Z,15.4
2018-11-02T22:03:38.274Z,15.4
2018-11-02T22:04:39.136Z,18.3
2018-11-02T22:05:40.403Z,15.4
2018-11-02T22:06:38.874Z,18.3
2018-11-02T22:07:39.359Z,18.3
2018-11-02T22:08:39.195Z,21.3
2018-11-02T22:09:37.947Z,18.3
2018-11-02T22:10:38.448Z,21.3
2018-11-02T22:11:37.887Z,24.3
2018-11-02T22:12:39.004Z,21.3
2018-11-02T22:13:39.052Z,18.3
2018-11-02T22:14:38.750Z,18.3
2018-11-02T22:15:40.906Z,18.3
2018-11-02T22:16:40.671Z,18.3
2018-11-02T22:17:37.786Z,18.3
2018-11-02T22:18:37.891Z,18.3
2018-11-02T22:19:39.723Z,18.3
2018-11-02T22:20:39.216Z,18.3
2018-11-02T22:21:40.563Z,21.3
2018-11-02T22:22:38.879Z,15.4
2018-11-02T22:23:43.737Z,12.4
2018-11-02T22:24:38.357Z,12.4
2018-11-02T22:25:39.957Z,15.4
2018-11-02T22:26:41.062Z,15.4
2018-11-02T22:27:38.812Z,12.4
2018-11-02T22:28:40.955Z,15.4
2018-11-02T22:29:42.390Z,18.3
2018-11-02T22:30:37.857Z,21.3
2018-11-02T22:31:39.297Z,21.3
2018-11-02T22:32:39.121Z,24.3
2018-11-02T22:33:39.498Z,18.3
2018-11-02T22:34:38.746Z,18.3
2018-11-02T22:35:38.137Z,15.4
2018-11-02T22:36:39.926Z,18.3
2018-11-02T22:37:37.822Z,18.3
2018-11-02T22:38:41.072Z,21.3
2018-11-02T22:39:39.700Z,15.4
2018-11-02T22:40:38.690Z,21.3
2018-11-02T22:41:40.721Z,15.4
2018-11-02T22:42:39.614Z,18.3
2018-11-02T22:43:39.652Z,15.4
2018-11-02T22:44:39.676Z,18.3
2018-11-02T22:45:38.774Z,18.3
2018-11-02T22:46:37.731Z,21.3
2018-11-02T22:47:37.880Z,18.3
2018-11-02T22:48:37.961Z,21.3
2018-11-02T22:49:43.850Z,21.3
2018-11-02T22:50:39.568Z,15.4
2018-11-02T22:51:38.202Z,21.3
2018-11-02T22:52:38.621Z,21.3
2018-11-02T22:53:38.161Z,18.3
2018-11-02T22:54:39.587Z,24.3
2018-11-02T22:55:37.948Z,18.3
2018-11-02T22:56:39.473Z,18.3
2018-11-02T22:57:38.380Z,15.4
2018-11-02T22:58:40.664Z,18.3
2018-11-02T22:59:39.844Z,18.3
2018-11-02T23:00:39.685Z,21.3
2018-11-02T23:01:40.789Z,21.3
2018-11-02T23:02:42.167Z,18.3
2018-11-02T23:03:48.452Z,15.4
2018-11-02T23:04:39.669Z,15.4
2018-11-02T23:05:39.556Z,15.4
2018-11-02T23:06:40.691Z,15.4
2018-11-02T23:07:38.367Z,15.4
2018-11-02T23:08:38.864Z,15.4
2018-11-02T23:09:39.916Z,21.3
2018-11-02T23:10:37.701Z,15.4
2018-11-02T23:11:38.369Z,15.4
2018-11-02T23:12:38.701Z,15.4
2018-11-02T23:13:38.008Z,15.4
2018-11-02T23:14:37.701Z,18.3
2018-11-02T23:15:38.697Z,15.4
2018-11-02T23:16:38.425Z,12.4
2018-11-02T23:17:37.728Z,15.4
2018-11-02T23:18:38.492Z,18.3
2018-11-02T23:19:37.868Z,9.5
2018-11-02T23:20:38.320Z,18.3
2018-11-02T23:21:38.640Z,18.3
2018-11-02T23:22:38.399Z,15.4
2018-11-02T23:23:37.769Z,12.4
2018-11-02T23:24:38.738Z,12.4
2018-11-02T23:25:37.701Z,15.4
2018-11-02T23:26:38.988Z,18.3
2018-11-02T23:27:37.664Z,15.4
2018-11-02T23:28:39.202Z,15.4
2018-11-02T23:29:37.820Z,15.4
2018-11-02T23:30:37.763Z,18.3
2018-11-02T23:31:38.574Z,15.4
2018-11-02T23:32:39.015Z,15.4
2018-11-02T23:33:38.237Z,15.4
2018-11-02T23:34:37.725Z,15.4
2018-11-02T23:35:37.718Z,18.3
2018-11-02T23:36:38.588Z,15.4
2018-11-02T23:37:37.827Z,15.4
2018-11-02T23:38:38.656Z,12.4
2018-11-02T23:39:37.726Z,18.3
2018-11-02T23:40:38.410Z,12.4
2018-11-02T23:41:37.713Z,15.4
2018-11-02T23:42:38.609Z,15.4
2018-11-02T23:43:40.732Z,18.3
2018-11-02T23:44:39.253Z,15.4
2018-11-02T23:45:37.679Z,21.3
2018-11-02T23:46:38.676Z,15.4
2018-11-02T23:47:37.760Z,15.4
2018-11-02T23:48:38.379Z,18.3
2018-11-02T23:49:37.652Z,18.3
2018-11-02T23:50:38.372Z,18.3
2018-11-02T23:51:38.073Z,15.4
2018-11-02T23:52:37.811Z,15.4
2018-11-02T23:53:37.728Z,18.3
2018-11-02T23:54:39.007Z,15.4
2018-11-02T23:55:37.679Z,18.3
2018-11-02T23:56:38.438Z,15.4
2018-11-02T23:57:38.667Z,15.4
2018-11-02T23:58:37.713Z,15.4
2018-11-02T23:59:39.000Z,15.4
